Ronald Reagan Washington National Airport
KDCA : rendu visible

Aérodrome :











RETROUVEZ-NOUS SUR...

 
LOGIN :

S'inscrire | Disclaimer

   EN    FR    IT 

 









Légende :    VFR   VFR Marginal   IFR   IFR Intensif   IFR Très Intensif
Visi : 
Plafond : 
>= 8 km
>= 3000ft
5 à 8 km
1000 à 3000 ft
1500m à 5 km
500 à 1000 ft
800 à 1500m
200 à 500 ft
< 800m
< 200 ft
Symboles :   Orages  Brouillard  Fortes neiges  Fortes précipitations  Vent > 20 kt






- Altitude de l'aérodrome : 15 ft
- Code IATA : DCA


KDCA - Ronald Reagan Washington National

DERNIER METAR :
  • 071152Z 00000KT 10SM FEW035 FEW080 BKN150 BKN250 24/21 A3009 RMK AO2 SLP189 60000 70046 T02440211 10244 20233 51008

METARs EXPIRÉS :
  • 071052Z 15003KT 10SM FEW030 SCT150 BKN250 23/21 A3008 RMK AO2 SLP187 T02330211
  • 070952Z 14003KT 10SM -RA BKN030 BKN250 24/22 A3009 RMK AO2 RAB46 SLP187 P0000 T02390217

TAF KDCA
Valide du 07 à 12h jusqu'au 08 à 18h UTC


071207Z 0712/0818 VRB03KT P6SM SCT050 BKN110
TEMPO 0712/0713 6SM -SHRA BKN040
FM071900 14004KT P6SM VCTS SCT025CB BKN035
FM072300 10004KT P6SM -SHRA VCTS SCT025CB OVC060
FM080300 11004KT P6SM SCT025 OVC070
FM081100 01004KT P6SM SCT015 BKN200
FIR KZDC / Amérique du Nord



MET'MAP, la Météo Aéronautique d'un coup d'oeil ! - Copyright ORBIFLY Décembre 2007 - Disclaimer

ORBIFLY MET'MAP TEAM :

Programmation & Développement : Alexandra Zaïnal
Sur une idée originale de : Baudouin d'Aumeries
Assistance à la programmation : Marc-Olivier Méhu
Soutien technique & logistique : Manuel Goepfert

Contact : metmap@orbifly.com




SOURCES & CREDITS :

   NOAA       Earth
Advisory